Time;durP1;ratioP1;P1;durP2;ratioP2;P2;SDS_P1;SDS_P2;PMS_P1;PMS_P2;Temp;Humidity;BMP_temperature;BMP_pressure;BME280_temperature;BME280_humidity;BME280_pressure;Samples;Min_cycle;Max_cycle;Signal;HPM_P1;HPM_P2
2021/12/14 00:00:20;;;;;;;14.07;8.88;;;;;;;;;;5011634;28;20500;-61
2021/12/14 00:02:46;;;;;;;11.55;9.57;;;;;;;;;;5012552;28;20113;-61
2021/12/14 00:05:12;;;;;;;11.60;9.07;;;;;;;;;;5018705;28;20152;-61
2021/12/14 00:07:37;;;;;;;14.32;8.95;;;;;;;;;;5031087;28;20021;-61
2021/12/14 00:10:15;;;;;;;11.30;9.70;;;;;;;;;;5011017;28;20448;-61
2021/12/14 00:12:57;;;;;;;10.73;9.57;;;;;;;;;;5012640;28;20026;-61
2021/12/14 00:15:23;;;;;;;10.70;9.60;;;;;;;;;;5011125;28;20033;-61
2021/12/14 00:17:53;;;;;;;9.70;7.80;;;;;;;;;;5012544;28;20022;-61
2021/12/14 00:20:22;;;;;;;12.73;11.27;;;;;;;;;;5011074;28;20111;-61
2021/12/14 00:25:28;;;;;;;13.52;9.20;;;;;;;;;;5010978;28;20042;-61
2021/12/14 00:27:54;;;;;;;11.30;10.13;;;;;;;;;;5012740;28;20385;-61
2021/12/14 00:30:19;;;;;;;11.20;9.80;;;;;;;;;;5010979;28;20089;-61
2021/12/14 00:32:45;;;;;;;11.95;10.32;;;;;;;;;;5012473;28;20029;-61
2021/12/14 00:35:12;;;;;;;15.57;10.07;;;;;;;;;;5018034;28;20045;-61
2021/12/14 00:37:39;;;;;;;10.40;9.40;;;;;;;;;;5031638;28;20064;-61
2021/12/14 00:40:12;;;;;;;12.05;9.50;;;;;;;;;;5030779;28;20040;-61
2021/12/14 00:42:37;;;;;;;14.07;9.27;;;;;;;;;;5032267;28;20025;-61
2021/12/14 00:45:03;;;;;;;11.60;10.13;;;;;;;;;;5030805;28;20397;-62
2021/12/14 00:47:29;;;;;;;12.18;9.88;;;;;;;;;;5031523;28;20162;-62
2021/12/14 00:49:54;;;;;;;19.90;12.45;;;;;;;;;;5017978;28;20132;-62
2021/12/14 00:52:20;;;;;;;11.70;9.77;;;;;;;;;;5012392;28;20017;-62
2021/12/14 00:54:45;;;;;;;12.63;9.40;;;;;;;;;;5010303;28;20041;-62
2021/12/14 00:57:10;;;;;;;11.77;10.40;;;;;;;;;;5012334;28;20022;-62
2021/12/14 00:59:36;;;;;;;12.83;9.87;;;;;;;;;;5010443;28;20034;-63
2021/12/14 01:02:09;;;;;;;13.32;10.52;;;;;;;;;;5012076;28;20511;-62
2021/12/14 01:04:37;;;;;;;14.98;9.20;;;;;;;;;;5011650;28;20057;-62
2021/12/14 01:07:03;;;;;;;13.82;11.73;;;;;;;;;;5011855;28;20053;-59
2021/12/14 01:09:30;;;;;;;14.50;10.80;;;;;;;;;;5010026;28;20115;-61
2021/12/14 01:12:01;;;;;;;12.73;11.27;;;;;;;;;;5012255;28;20093;-61
2021/12/14 01:14:32;;;;;;;16.08;11.40;;;;;;;;;;5010361;28;20026;-61
2021/12/14 01:17:12;;;;;;;17.40;12.23;;;;;;;;;;5011976;28;20032;-61
2021/12/14 01:19:40;;;;;;;14.32;12.45;;;;;;;;;;5020291;28;20436;-61
2021/12/14 01:22:46;;;;;;;16.20;11.75;;;;;;;;;;5031888;28;20056;-61
2021/12/14 01:25:10;;;;;;;16.73;13.77;;;;;;;;;;5029469;28;20045;-61
2021/12/14 01:27:48;;;;;;;24.33;13.38;;;;;;;;;;5031052;28;20135;-61
2021/12/14 01:30:22;;;;;;;17.55;12.88;;;;;;;;;;5029995;28;20058;-60
2021/12/14 01:32:52;;;;;;;17.48;13.63;;;;;;;;;;5031501;28;20029;-61
2021/12/14 01:35:22;;;;;;;15.10;13.50;;;;;;;;;;5029848;28;20029;-61
2021/12/14 01:37:59;;;;;;;15.68;12.30;;;;;;;;;;5027387;28;20048;-61
2021/12/14 01:40:46;;;;;;;16.52;14.13;;;;;;;;;;5010036;28;20062;-61
2021/12/14 01:43:12;;;;;;;16.50;14.55;;;;;;;;;;5011857;28;20068;-59
2021/12/14 01:45:37;;;;;;;17.00;14.37;;;;;;;;;;5009668;28;20034;-60
2021/12/14 01:48:02;;;;;;;20.53;14.93;;;;;;;;;;5011363;28;20950;-59
2021/12/14 01:50:37;;;;;;;16.08;12.63;;;;;;;;;;5009904;28;20511;-59
2021/12/14 01:53:03;;;;;;;17.48;15.15;;;;;;;;;;5011004;28;20050;-59
2021/12/14 01:55:30;;;;;;;18.13;13.40;;;;;;;;;;5009790;28;20111;-59
2021/12/14 01:57:57;;;;;;;20.15;15.68;;;;;;;;;;5011234;28;20034;-59
2021/12/14 02:00:33;;;;;;;15.95;14.32;;;;;;;;;;5013441;28;20061;-59
2021/12/14 02:02:58;;;;;;;16.63;14.82;;;;;;;;;;5031369;28;20029;-59
2021/12/14 02:05:26;;;;;;;17.40;14.70;;;;;;;;;;5029161;28;20029;-59
2021/12/14 02:07:52;;;;;;;19.92;13.93;;;;;;;;;;5030377;28;20045;-59
2021/12/14 02:10:37;;;;;;;16.67;14.85;;;;;;;;;;5027709;28;20060;-59
2021/12/14 02:13:04;;;;;;;15.45;13.95;;;;;;;;;;5030754;28;20064;-59
2021/12/14 02:15:40;;;;;;;18.23;14.50;;;;;;;;;;5028926;28;20038;-59
2021/12/14 02:18:08;;;;;;;18.67;16.10;;;;;;;;;;5030986;28;20060;-59
2021/12/14 02:20:37;;;;;;;17.42;15.60;;;;;;;;;;5029444;28;20042;-58
2021/12/14 02:23:02;;;;;;;19.60;16.00;;;;;;;;;;5028124;28;20030;-58
2021/12/14 02:25:28;;;;;;;21.65;18.10;;;;;;;;;;5009404;28;20498;-59
2021/12/14 02:27:54;;;;;;;19.40;14.37;;;;;;;;;;5011169;28;20362;-59
2021/12/14 02:30:23;;;;;;;21.02;15.48;;;;;;;;;;5008960;28;21100;-59
2021/12/14 02:32:49;;;;;;;16.40;14.80;;;;;;;;;;5011146;28;20014;-59
2021/12/14 02:35:15;;;;;;;18.10;15.35;;;;;;;;;;5009715;28;20112;-58
2021/12/14 02:37:46;;;;;;;18.15;15.02;;;;;;;;;;5011473;28;20546;-58
2021/12/14 02:40:20;;;;;;;20.02;17.92;;;;;;;;;;5029400;28;20044;-59
2021/12/14 02:42:48;;;;;;;17.20;15.45;;;;;;;;;;5030385;28;20432;-59
2021/12/14 02:45:13;;;;;;;18.60;16.25;;;;;;;;;;5029125;28;20036;-58
2021/12/14 02:47:39;;;;;;;23.05;17.73;;;;;;;;;;5030263;28;20017;-58
2021/12/14 02:50:05;;;;;;;20.17;16.27;;;;;;;;;;5029180;28;20037;-58
2021/12/14 02:52:35;;;;;;;19.23;16.55;;;;;;;;;;5029996;28;20064;-58
2021/12/14 02:55:04;;;;;;;22.15;17.23;;;;;;;;;;5028967;28;20038;-58
2021/12/14 02:57:31;;;;;;;26.77;17.75;;;;;;;;;;5030415;28;20021;-58
2021/12/14 02:59:56;;;;;;;20.02;18.05;;;;;;;;;;5028885;28;20386;-58
2021/12/14 03:02:24;;;;;;;19.30;17.30;;;;;;;;;;5034122;28;20056;-58
2021/12/14 03:04:51;;;;;;;19.50;16.13;;;;;;;;;;5032998;28;20026;-59
2021/12/14 03:07:17;;;;;;;23.77;18.58;;;;;;;;;;5033856;28;20435;-59
2021/12/14 03:12:17;;;;;;;22.98;18.58;;;;;;;;;;5029628;28;20026;-59
2021/12/14 03:14:54;;;;;;;18.52;16.05;;;;;;;;;;5012550;28;20130;-59
2021/12/14 03:17:19;;;;;;;19.33;15.50;;;;;;;;;;5014292;28;20084;-59
2021/12/14 03:20:03;;;;;;;20.50;18.30;;;;;;;;;;5012887;28;20037;-59
2021/12/14 03:22:54;;;;;;;20.67;17.70;;;;;;;;;;5013355;28;20389;-59
2021/12/14 03:25:20;;;;;;;19.95;17.85;;;;;;;;;;5018750;28;20038;-59
2021/12/14 03:27:45;;;;;;;18.50;16.55;;;;;;;;;;5024228;28;20033;-59
2021/12/14 03:30:19;;;;;;;21.48;17.90;;;;;;;;;;5031904;28;20029;-59
2021/12/14 03:32:45;;;;;;;20.17;18.02;;;;;;;;;;5033700;28;20032;-59
2021/12/14 03:35:10;;;;;;;24.15;19.52;;;;;;;;;;5032082;28;20404;-61
2021/12/14 03:37:35;;;;;;;24.27;18.13;;;;;;;;;;5032956;28;20461;-58
2021/12/14 03:40:03;;;;;;;24.63;18.90;;;;;;;;;;5032217;28;20048;-59
2021/12/14 03:42:36;;;;;;;21.33;18.58;;;;;;;;;;5022674;28;20452;-59
2021/12/14 03:45:03;;;;;;;20.77;17.92;;;;;;;;;;5012160;28;20026;-59
2021/12/14 03:47:28;;;;;;;20.42;18.02;;;;;;;;;;5013134;28;20022;-59
2021/12/14 03:49:55;;;;;;;21.17;18.92;;;;;;;;;;5011993;28;20036;-59
2021/12/14 03:52:22;;;;;;;21.25;16.65;;;;;;;;;;5013068;28;20093;-60
2021/12/14 03:54:47;;;;;;;19.75;17.67;;;;;;;;;;5012043;28;20038;-59
2021/12/14 03:57:12;;;;;;;22.00;19.73;;;;;;;;;;5023025;28;20021;-59
2021/12/14 03:59:38;;;;;;;20.77;17.67;;;;;;;;;;5030903;28;21090;-59
2021/12/14 04:02:04;;;;;;;22.35;16.98;;;;;;;;;;5033210;28;20380;-58
2021/12/14 04:04:36;;;;;;;19.92;17.95;;;;;;;;;;5031505;28;20040;-58
2021/12/14 04:07:03;;;;;;;27.30;19.83;;;;;;;;;;5032730;28;20031;-59
2021/12/14 04:09:29;;;;;;;23.40;20.33;;;;;;;;;;5031244;28;20489;-58
2021/12/14 04:11:55;;;;;;;22.80;18.73;;;;;;;;;;5031662;28;20484;-58
2021/12/14 04:14:20;;;;;;;21.95;18.05;;;;;;;;;;5031027;28;20129;-57
2021/12/14 04:16:47;;;;;;;21.65;18.95;;;;;;;;;;5032841;28;20028;-58
2021/12/14 04:19:14;;;;;;;27.80;19.95;;;;;;;;;;5031000;28;20033;-58
2021/12/14 04:21:41;;;;;;;22.88;20.58;;;;;;;;;;5032462;28;20045;-59
2021/12/14 04:24:08;;;;;;;24.33;21.75;;;;;;;;;;5031383;28;20561;-59
2021/12/14 04:26:33;;;;;;;23.52;21.17;;;;;;;;;;5032387;28;20024;-59
2021/12/14 04:29:00;;;;;;;24.88;22.05;;;;;;;;;;5030809;28;20018;-59
2021/12/14 04:31:26;;;;;;;25.80;21.42;;;;;;;;;;5022341;28;20176;-59
2021/12/14 04:33:52;;;;;;;31.58;22.38;;;;;;;;;;5012854;28;20097;-59
2021/12/14 04:36:21;;;;;;;25.02;21.75;;;;;;;;;;5011011;28;20397;-59
2021/12/14 04:38:54;;;;;;;;;;;;;;;;;;5013399;28;20018;-59
2021/12/14 04:52:19;;;;;;;26.45;23.75;;;;;;;;;;5012211;28;20037;-59
2021/12/14 04:54:46;;;;;;;27.95;23.35;;;;;;;;;;5008633;28;20038;-59
2021/12/14 04:57:20;;;;;;;24.38;21.80;;;;;;;;;;5013349;28;20374;-59
2021/12/14 04:59:45;;;;;;;31.77;24.42;;;;;;;;;;5010517;28;20041;-59
2021/12/14 05:02:12;;;;;;;25.73;23.02;;;;;;;;;;5028068;28;20079;-59
2021/12/14 05:04:37;;;;;;;27.67;24.35;;;;;;;;;;5030492;28;20034;-59
2021/12/14 05:07:25;;;;;;;30.73;24.63;;;;;;;;;;5031652;28;20029;-58
2021/12/14 05:09:48;;;;;;;31.35;25.02;;;;;;;;;;5030297;28;20030;-58
2021/12/14 05:12:16;;;;;;;27.92;24.98;;;;;;;;;;5031712;28;20478;-57
2021/12/14 05:14:42;;;;;;;30.67;27.30;;;;;;;;;;5011705;28;20037;-58
2021/12/14 05:17:13;;;;;;;28.60;23.52;;;;;;;;;;5011822;28;20022;-58
2021/12/14 05:19:39;;;;;;;30.02;24.02;;;;;;;;;;5014118;28;20427;-58
2021/12/14 05:22:09;;;;;;;30.83;24.02;;;;;;;;;;5031552;28;20022;-58
2021/12/14 05:24:37;;;;;;;27.40;23.83;;;;;;;;;;5029911;28;20033;-58
2021/12/14 05:27:03;;;;;;;30.85;24.08;;;;;;;;;;5031437;28;20033;-58
2021/12/14 05:29:29;;;;;;;28.50;25.50;;;;;;;;;;5016716;28;20038;-58
2021/12/14 05:31:55;;;;;;;27.40;24.00;;;;;;;;;;5011665;28;20085;-58
2021/12/14 05:34:24;;;;;;;28.55;25.42;;;;;;;;;;5010233;28;20037;-58
2021/12/14 05:36:49;;;;;;;34.90;28.25;;;;;;;;;;5012358;28;20055;-58
2021/12/14 05:44:31;;;;;;;36.05;25.80;;;;;;;;;;5009941;28;20033;-58
2021/12/14 05:46:59;;;;;;;37.70;29.02;;;;;;;;;;5011145;28;20022;-58
2021/12/14 05:49:26;;;;;;;30.73;26.00;;;;;;;;;;5009628;28;20434;-58
2021/12/14 05:51:52;;;;;;;30.67;26.23;;;;;;;;;;5011475;28;20017;-58
2021/12/14 05:54:19;;;;;;;30.05;25.60;;;;;;;;;;5009464;28;20484;-59
2021/12/14 05:56:44;;;;;;;30.70;25.95;;;;;;;;;;5010720;28;20022;-58
2021/12/14 05:59:09;;;;;;;30.00;26.70;;;;;;;;;;5009984;28;20516;-58
2021/12/14 06:01:35;;;;;;;30.80;25.17;;;;;;;;;;5011151;28;20421;-58
2021/12/14 06:04:06;;;;;;;29.30;25.25;;;;;;;;;;5009850;28;20018;-57
2021/12/14 06:06:36;;;;;;;29.00;25.60;;;;;;;;;;5011057;28;20112;-58
2021/12/14 06:09:13;;;;;;;31.33;25.90;;;;;;;;;;5010061;28;20026;-58
2021/12/14 06:11:39;;;;;;;31.55;26.58;;;;;;;;;;5010916;28;20096;-58
2021/12/14 06:14:10;;;;;;;30.30;25.35;;;;;;;;;;5013990;28;20101;-59
2021/12/14 06:16:36;;;;;;;33.05;27.48;;;;;;;;;;5019486;28;20561;-58
2021/12/14 06:19:19;;;;;;;29.38;24.80;;;;;;;;;;5019100;28;20155;-58
2021/12/14 06:21:46;;;;;;;31.27;27.52;;;;;;;;;;5020832;28;20025;-59
2021/12/14 06:24:11;;;;;;;31.48;25.73;;;;;;;;;;5020654;28;20041;-58
2021/12/14 06:26:38;;;;;;;34.33;26.05;;;;;;;;;;5022040;28;20801;-58
2021/12/14 06:29:04;;;;;;;29.58;25.73;;;;;;;;;;5019007;28;20079;-58
2021/12/14 06:31:29;;;;;;;32.50;26.63;;;;;;;;;;5018120;28;20100;-58
2021/12/14 06:33:55;;;;;;;32.23;26.30;;;;;;;;;;5021235;28;20096;-58
2021/12/14 06:36:40;;;;;;;31.48;26.23;;;;;;;;;;5021033;28;20033;-58
2021/12/14 06:39:06;;;;;;;29.20;25.13;;;;;;;;;;5023601;28;20013;-58
2021/12/14 06:41:31;;;;;;;31.58;25.63;;;;;;;;;;5022249;28;20523;-58
2021/12/14 06:43:57;;;;;;;30.27;24.83;;;;;;;;;;5025061;28;20025;-58
2021/12/14 06:46:24;;;;;;;31.35;27.63;;;;;;;;;;5022400;28;20049;-58
2021/12/14 06:48:52;;;;;;;32.58;27.83;;;;;;;;;;5023010;28;20021;-58
2021/12/14 06:51:17;;;;;;;30.55;27.17;;;;;;;;;;5021730;28;20401;-58
2021/12/14 06:53:45;;;;;;;31.77;25.30;;;;;;;;;;5023813;28;20056;-58
2021/12/14 06:56:11;;;;;;;33.75;25.55;;;;;;;;;;5023100;28;20467;-59
2021/12/14 06:58:38;;;;;;;30.65;26.38;;;;;;;;;;5024702;28;20021;-58
2021/12/14 07:01:11;;;;;;;31.17;26.58;;;;;;;;;;5020758;28;20034;-58
2021/12/14 07:03:40;;;;;;;31.38;24.98;;;;;;;;;;5022770;28;20055;-58
2021/12/14 07:06:06;;;;;;;35.03;26.30;;;;;;;;;;5021796;28;20052;-58
2021/12/14 07:08:31;;;;;;;28.35;24.83;;;;;;;;;;5024405;28;20017;-58
2021/12/14 07:10:57;;;;;;;29.08;25.52;;;;;;;;;;5020831;28;20136;-58
2021/12/14 07:13:28;;;;;;;31.87;23.77;;;;;;;;;;5023400;28;20039;-57
2021/12/14 07:15:53;;;;;;;29.15;26.00;;;;;;;;;;5015232;28;20453;-57
2021/12/14 07:18:23;;;;;;;27.67;23.67;;;;;;;;;;5013776;28;20101;-58
2021/12/14 07:20:49;;;;;;;27.20;22.40;;;;;;;;;;5012717;28;20463;-57
2021/12/14 07:23:21;;;;;;;33.45;25.65;;;;;;;;;;5014026;28;20034;-57
2021/12/14 07:25:54;;;;;;;26.48;23.55;;;;;;;;;;5028888;28;20064;-57
2021/12/14 07:28:19;;;;;;;29.23;24.50;;;;;;;;;;5032546;28;20097;-57
2021/12/14 07:30:48;;;;;;;33.28;27.10;;;;;;;;;;5031492;28;20116;-57
2021/12/14 07:33:14;;;;;;;32.13;25.80;;;;;;;;;;5032783;28;20028;-58
2021/12/14 07:35:45;;;;;;;31.88;25.25;;;;;;;;;;5031123;28;20025;-58
2021/12/14 07:38:10;;;;;;;33.58;28.40;;;;;;;;;;5030192;28;20028;-57
2021/12/14 07:40:39;;;;;;;29.85;25.58;;;;;;;;;;5031263;28;20049;-57
2021/12/14 07:43:13;;;;;;;29.50;25.20;;;;;;;;;;5033527;28;20091;-58
2021/12/14 07:45:38;;;;;;;34.80;24.23;;;;;;;;;;5031746;28;20076;-57
2021/12/14 07:48:03;;;;;;;31.73;25.08;;;;;;;;;;5032969;28;20057;-58
2021/12/14 07:50:40;;;;;;;31.73;24.43;;;;;;;;;;5031562;28;20034;-57
2021/12/14 07:53:05;;;;;;;32.20;23.85;;;;;;;;;;5033199;28;20440;-57
2021/12/14 07:55:36;;;;;;;33.08;25.10;;;;;;;;;;5031195;28;20058;-57
2021/12/14 07:58:02;;;;;;;34.83;24.85;;;;;;;;;;5033312;28;20072;-57
2021/12/14 08:00:31;;;;;;;31.48;24.63;;;;;;;;;;5031574;28;20049;-57
2021/12/14 08:02:56;;;;;;;32.17;24.70;;;;;;;;;;5033149;28;20032;-57
2021/12/14 08:05:24;;;;;;;29.23;23.52;;;;;;;;;;5031298;28;20034;-57
2021/12/14 08:07:58;;;;;;;30.13;24.30;;;;;;;;;;5033223;28;20026;-57
2021/12/14 08:10:27;;;;;;;32.13;24.60;;;;;;;;;;5030778;28;20558;-57
2021/12/14 08:12:56;;;;;;;29.13;24.10;;;;;;;;;;5033124;28;20013;-57
2021/12/14 08:15:24;;;;;;;30.33;24.63;;;;;;;;;;5031331;28;20040;-57
2021/12/14 08:17:57;;;;;;;37.03;26.67;;;;;;;;;;5026449;28;20028;-57
2021/12/14 08:20:23;;;;;;;30.77;25.17;;;;;;;;;;5018543;28;20097;-57
2021/12/14 08:22:49;;;;;;;34.28;26.70;;;;;;;;;;5032793;28;20108;-57
2021/12/14 08:25:15;;;;;;;33.17;29.35;;;;;;;;;;5024929;28;20038;-57
2021/12/14 08:27:41;;;;;;;29.60;25.05;;;;;;;;;;5032492;28;20021;-57
2021/12/14 08:30:11;;;;;;;34.47;27.20;;;;;;;;;;5030265;28;20034;-57
2021/12/14 08:32:37;;;;;;;37.03;28.13;;;;;;;;;;5031864;28;20020;-57
2021/12/14 08:35:04;;;;;;;30.10;25.35;;;;;;;;;;5030870;28;20034;-57
2021/12/14 08:37:29;;;;;;;35.58;26.35;;;;;;;;;;5012327;28;20473;-57
2021/12/14 08:40:02;;;;;;;31.77;24.83;;;;;;;;;;5010969;28;20493;-57
2021/12/14 08:42:37;;;;;;;35.92;26.35;;;;;;;;;;5012444;28;20037;-57
2021/12/14 08:45:24;;;;;;;38.50;28.85;;;;;;;;;;5010970;28;20030;-57
2021/12/14 08:47:51;;;;;;;42.25;26.55;;;;;;;;;;5012337;28;20022;-58
2021/12/14 08:50:16;;;;;;;36.10;27.38;;;;;;;;;;5026301;28;20565;-57
2021/12/14 08:52:42;;;;;;;32.35;25.05;;;;;;;;;;5032217;28;20104;-57
2021/12/14 08:55:10;;;;;;;35.25;26.60;;;;;;;;;;5028770;28;20042;-57
2021/12/14 08:57:37;;;;;;;36.83;26.23;;;;;;;;;;5030131;28;20045;-57
2021/12/14 09:00:12;;;;;;;37.25;27.55;;;;;;;;;;5030628;28;20512;-57
2021/12/14 09:02:38;;;;;;;34.10;27.00;;;;;;;;;;5030299;28;20603;-57
2021/12/14 09:05:12;;;;;;;39.63;28.73;;;;;;;;;;5030577;28;20571;-56
2021/12/14 09:07:37;;;;;;;34.25;27.73;;;;;;;;;;5031931;28;20060;-57
2021/12/14 09:10:06;;;;;;;36.65;27.05;;;;;;;;;;5029876;28;20057;-57
2021/12/14 09:12:33;;;;;;;37.53;29.75;;;;;;;;;;5026306;28;20025;-57
2021/12/14 09:15:06;;;;;;;33.67;25.15;;;;;;;;;;5018345;28;20400;-57
2021/12/14 09:17:31;;;;;;;39.40;27.38;;;;;;;;;;5011511;28;20049;-57
2021/12/14 09:20:01;;;;;;;33.55;26.05;;;;;;;;;;5028709;28;20076;-57
2021/12/14 09:22:29;;;;;;;35.33;28.05;;;;;;;;;;5031526;28;20021;-57
2021/12/14 09:24:55;;;;;;;28.48;23.27;;;;;;;;;;5029732;28;20033;-57
2021/12/14 09:27:22;;;;;;;34.65;26.75;;;;;;;;;;5031415;28;20021;-57
2021/12/14 09:29:48;;;;;;;34.42;27.88;;;;;;;;;;5029553;28;20508;-57
2021/12/14 09:32:17;;;;;;;37.88;26.55;;;;;;;;;;5030298;28;20064;-58
2021/12/14 09:34:43;;;;;;;34.10;27.45;;;;;;;;;;5029042;28;20052;-57
2021/12/14 09:37:10;;;;;;;38.92;29.23;;;;;;;;;;5030556;28;20018;-57
2021/12/14 09:39:38;;;;;;;38.40;28.27;;;;;;;;;;5028655;28;20038;-57
2021/12/14 09:42:06;;;;;;;44.65;31.17;;;;;;;;;;5031313;28;20025;-57
2021/12/14 09:44:33;;;;;;;42.95;30.38;;;;;;;;;;5029539;28;20029;-57
2021/12/14 09:47:00;;;;;;;34.28;27.15;;;;;;;;;;5030985;28;20021;-57
2021/12/14 09:49:26;;;;;;;37.65;29.52;;;;;;;;;;5029636;28;20021;-57
2021/12/14 09:52:05;;;;;;;42.67;29.98;;;;;;;;;;5031076;28;20032;-57
2021/12/14 09:54:30;;;;;;;37.83;30.42;;;;;;;;;;5028959;28;20045;-57
2021/12/14 09:57:01;;;;;;;39.75;31.58;;;;;;;;;;5031209;28;20040;-57
2021/12/14 09:59:27;;;;;;;37.83;26.88;;;;;;;;;;5029449;28;20404;-57
2021/12/14 10:01:52;;;;;;;42.45;33.30;;;;;;;;;;5030751;28;20025;-57
2021/12/14 10:04:20;;;;;;;41.50;30.75;;;;;;;;;;5029822;28;20100;-57
2021/12/14 10:06:45;;;;;;;38.53;30.27;;;;;;;;;;5030902;28;20104;-57
2021/12/14 10:09:15;;;;;;;39.97;31.05;;;;;;;;;;5029642;28;20096;-58
2021/12/14 10:11:59;;;;;;;42.53;33.10;;;;;;;;;;5034600;28;20013;-57
2021/12/14 10:14:31;;;;;;;43.03;34.58;;;;;;;;;;5033745;28;20026;-57
2021/12/14 10:16:56;;;;;;;46.63;32.15;;;;;;;;;;5034774;28;20084;-58
2021/12/14 10:19:29;;;;;;;41.85;30.52;;;;;;;;;;5033601;28;20029;-57
2021/12/14 10:21:56;;;;;;;40.03;31.02;;;;;;;;;;5035089;28;20420;-58
2021/12/14 10:24:21;;;;;;;45.47;31.42;;;;;;;;;;5032853;28;20030;-57
2021/12/14 10:26:50;;;;;;;41.80;31.38;;;;;;;;;;5034759;28;20382;-58
2021/12/14 10:29:16;;;;;;;42.35;33.33;;;;;;;;;;5033074;28;20385;-57
2021/12/14 10:31:44;;;;;;;41.30;34.00;;;;;;;;;;5033723;28;20025;-57
2021/12/14 10:34:14;;;;;;;44.35;35.60;;;;;;;;;;5033333;28;20096;-57
2021/12/14 10:36:44;;;;;;;43.72;31.98;;;;;;;;;;5033887;28;20465;-57
2021/12/14 10:44:25;;;;;;;47.60;34.80;;;;;;;;;;5033404;28;20037;-58
2021/12/14 10:46:51;;;;;;;51.17;37.05;;;;;;;;;;5034473;28;20019;-58
2021/12/14 10:49:18;;;;;;;50.90;36.42;;;;;;;;;;5029106;28;20021;-58
2021/12/14 10:51:44;;;;;;;56.13;43.70;;;;;;;;;;5033508;28;20377;-57
2021/12/14 10:54:13;;;;;;;53.67;40.60;;;;;;;;;;5032472;28;20084;-57
2021/12/14 10:56:39;;;;;;;;;;;;;;;;;;5034564;28;20388;-58
2021/12/14 10:59:05;;;;;;;56.72;42.13;;;;;;;;;;5033248;28;19905;-57
2021/12/14 11:01:33;;;;;;;61.60;43.42;;;;;;;;;;5033997;28;20032;-57
2021/12/14 11:04:02;;;;;;;60.97;42.10;;;;;;;;;;5034349;28;20029;-58
2021/12/14 11:06:29;;;;;;;55.95;41.38;;;;;;;;;;5032556;28;21174;-57
2021/12/14 11:11:36;;;;;;;61.63;44.55;;;;;;;;;;5047021;28;20033;-57
2021/12/14 11:14:04;;;;;;;50.33;40.65;;;;;;;;;;5038118;28;20358;-57
2021/12/14 11:18:08;;;;;;;55.08;41.45;;;;;;;;;;5034480;28;20028;-57
2021/12/14 11:19:17;;;;;;;60.25;42.47;;;;;;;;;;5034647;28;20033;-57
2021/12/14 11:21:42;;;;;;;58.20;41.35;;;;;;;;;;5033021;28;20021;-57
2021/12/14 11:24:07;;;;;;;60.55;44.45;;;;;;;;;;5043711;28;20041;-57
2021/12/14 11:26:35;;;;;;;64.50;45.25;;;;;;;;;;5039772;28;20026;-58
2021/12/14 11:29:11;;;;;;;59.00;43.25;;;;;;;;;;5049839;28;20100;-57
2021/12/14 11:31:44;;;;;;;61.85;42.90;;;;;;;;;;5051345;28;20034;-57
2021/12/14 11:34:12;;;;;;;63.17;43.10;;;;;;;;;;5049779;28;20017;-57
2021/12/14 11:36:40;;;;;;;61.63;45.90;;;;;;;;;;5032317;28;20499;-57
2021/12/14 11:39:07;;;;;;;60.07;42.13;;;;;;;;;;5028383;28;20443;-57
2021/12/14 11:41:35;;;;;;;63.00;45.08;;;;;;;;;;5032385;28;20048;-57
2021/12/14 11:44:03;;;;;;;64.25;47.28;;;;;;;;;;5030714;28;20487;-57
2021/12/14 11:46:31;;;;;;;69.55;45.30;;;;;;;;;;5030591;28;20029;-57
2021/12/14 11:48:58;;;;;;;64.60;45.78;;;;;;;;;;5015646;28;20025;-57
2021/12/14 11:51:24;;;;;;;65.03;47.83;;;;;;;;;;5029906;28;20037;-57
2021/12/14 11:53:51;;;;;;;72.68;44.35;;;;;;;;;;5032398;28;20497;-57
2021/12/14 11:56:18;;;;;;;69.25;47.00;;;;;;;;;;5031406;28;20040;-57
2021/12/14 11:58:48;;;;;;;68.32;45.20;;;;;;;;;;5033187;28;20021;-58
2021/12/14 12:01:31;;;;;;;65.20;46.72;;;;;;;;;;5031049;28;20048;-58
2021/12/14 12:03:57;;;;;;;70.68;46.92;;;;;;;;;;5032724;28;20033;-58
2021/12/14 12:11:57;;;;;;;71.15;48.60;;;;;;;;;;5032699;28;20091;-58
2021/12/14 12:14:25;;;;;;;65.32;47.95;;;;;;;;;;5030601;28;20052;-57
2021/12/14 12:16:54;;;;;;;70.18;44.15;;;;;;;;;;5032860;28;20385;-57
2021/12/14 12:19:21;;;;;;;65.90;44.88;;;;;;;;;;5030923;28;20100;-57
2021/12/14 12:21:47;;;;;;;71.93;46.33;;;;;;;;;;5031914;28;20013;-57
2021/12/14 12:24:32;;;;;;;65.25;45.28;;;;;;;;;;5030865;28;20018;-57
2021/12/14 12:27:16;;;;;;;72.97;46.28;;;;;;;;;;5032595;28;20072;-57
2021/12/14 12:29:41;;;;;;;65.18;45.88;;;;;;;;;;5030278;28;20523;-57
2021/12/14 12:32:17;;;;;;;73.95;46.28;;;;;;;;;;5031811;28;20025;-58
2021/12/14 12:34:43;;;;;;;64.35;43.53;;;;;;;;;;5030331;28;20396;-58
2021/12/14 12:37:11;;;;;;;75.60;45.45;;;;;;;;;;5032064;28;20017;-57
2021/12/14 12:39:36;;;;;;;75.10;47.67;;;;;;;;;;5026889;28;20044;-57
2021/12/14 12:42:03;;;;;;;82.30;53.67;;;;;;;;;;5030328;28;20029;-58
2021/12/14 12:44:30;;;;;;;72.72;46.30;;;;;;;;;;5028741;28;20592;-57
2021/12/14 12:46:58;;;;;;;73.10;47.88;;;;;;;;;;5031793;28;20061;-57
2021/12/14 12:49:24;;;;;;;84.35;51.70;;;;;;;;;;5030382;28;20040;-58
2021/12/14 12:51:58;;;;;;;73.03;48.60;;;;;;;;;;5031480;28;20096;-57
2021/12/14 12:54:26;;;;;;;73.68;48.55;;;;;;;;;;5029248;28;20065;-57
2021/12/14 12:57:10;;;;;;;75.90;49.63;;;;;;;;;;5031586;28;20075;-57
2021/12/14 12:59:42;;;;;;;88.00;52.38;;;;;;;;;;5029425;28;20481;-57
2021/12/14 13:02:12;;;;;;;85.82;54.45;;;;;;;;;;5031595;28;20026;-57
2021/12/14 13:04:38;;;;;;;80.22;50.30;;;;;;;;;;5029641;28;20542;-57
2021/12/14 13:07:06;;;;;;;83.07;50.10;;;;;;;;;;5030929;28;20037;-58
2021/12/14 13:09:32;;;;;;;78.45;50.50;;;;;;;;;;5029521;28;20025;-58
2021/12/14 13:11:57;;;;;;;76.53;48.90;;;;;;;;;;5031084;28;20024;-57
2021/12/14 13:14:22;;;;;;;88.87;53.50;;;;;;;;;;5029365;28;20045;-57
2021/12/14 13:16:51;;;;;;;85.03;50.50;;;;;;;;;;5031151;28;20017;-58
2021/12/14 13:19:18;;;;;;;90.40;52.17;;;;;;;;;;5029647;28;20465;-58
2021/12/14 13:21:52;;;;;;;84.53;50.25;;;;;;;;;;5030988;28;20022;-57
2021/12/14 13:24:37;;;;;;;91.10;51.38;;;;;;;;;;5029834;28;20017;-58
2021/12/14 13:27:10;;;;;;;81.05;50.22;;;;;;;;;;5030776;28;20059;-58
2021/12/14 13:29:48;;;;;;;81.07;51.58;;;;;;;;;;5029004;28;20026;-57
2021/12/14 13:32:13;;;;;;;80.80;54.28;;;;;;;;;;5031158;28;20017;-58
2021/12/14 13:34:41;;;;;;;84.53;51.42;;;;;;;;;;5029085;28;20052;-58
2021/12/14 13:37:07;;;;;;;78.18;49.97;;;;;;;;;;5030386;28;20030;-57
2021/12/14 13:39:32;;;;;;;83.20;50.50;;;;;;;;;;5029413;28;20087;-58
2021/12/14 13:42:12;;;;;;;94.75;60.13;;;;;;;;;;5030564;28;20072;-58
2021/12/14 13:44:39;;;;;;;78.95;51.20;;;;;;;;;;5028572;28;20149;-57
2021/12/14 13:47:07;;;;;;;90.15;55.03;;;;;;;;;;5030542;28;20128;-58
2021/12/14 13:49:33;;;;;;;84.93;49.95;;;;;;;;;;5028930;28;20032;-57
2021/12/14 13:51:58;;;;;;;89.50;52.88;;;;;;;;;;5030333;28;20096;-57
2021/12/14 13:54:24;;;;;;;93.57;56.60;;;;;;;;;;5028834;28;20164;-58
2021/12/14 13:56:50;;;;;;;95.68;56.33;;;;;;;;;;5029323;28;20436;-57
2021/12/14 13:59:16;;;;;;;98.30;56.50;;;;;;;;;;5029052;28;20021;-58
2021/12/14 14:01:45;;;;;;;100.95;59.45;;;;;;;;;;5030326;28;20431;-57
2021/12/14 14:04:12;;;;;;;108.38;56.97;;;;;;;;;;5026428;28;20027;-58
2021/12/14 14:06:38;;;;;;;103.93;59.70;;;;;;;;;;5017644;28;20014;-57
2021/12/14 14:09:08;;;;;;;101.18;58.35;;;;;;;;;;5028591;28;20075;-57
2021/12/14 14:11:39;;;;;;;111.85;63.30;;;;;;;;;;5029967;28;20026;-57
2021/12/14 14:14:09;;;;;;;114.97;64.47;;;;;;;;;;5028367;28;20029;-58
2021/12/14 14:16:38;;;;;;;115.88;63.13;;;;;;;;;;5030206;28;20029;-58
2021/12/14 14:19:05;;;;;;;118.45;61.70;;;;;;;;;;5028885;28;20025;-57
2021/12/14 14:21:31;;;;;;;119.95;63.83;;;;;;;;;;5028582;28;20144;-58
2021/12/14 14:23:57;;;;;;;122.00;60.78;;;;;;;;;;5012976;28;20476;-57
2021/12/14 14:26:42;;;;;;;112.63;56.50;;;;;;;;;;5028643;28;20523;-58
2021/12/14 14:29:09;;;;;;;118.95;63.30;;;;;;;;;;5027979;28;20398;-58
2021/12/14 14:31:43;;;;;;;125.75;61.60;;;;;;;;;;5030072;28;20048;-58
2021/12/14 14:34:22;;;;;;;130.88;68.40;;;;;;;;;;5029239;28;20107;-58
2021/12/14 14:36:55;;;;;;;117.07;64.55;;;;;;;;;;5030014;28;20033;-58
2021/12/14 14:39:22;;;;;;;121.68;64.15;;;;;;;;;;5028683;28;20037;-58
2021/12/14 14:41:52;;;;;;;125.80;64.30;;;;;;;;;;5030540;28;20022;-58
2021/12/14 14:44:21;;;;;;;131.23;63.78;;;;;;;;;;5028816;28;20048;-57
2021/12/14 14:46:49;;;;;;;119.05;61.15;;;;;;;;;;5029832;28;20021;-58
2021/12/14 14:49:18;;;;;;;132.98;65.70;;;;;;;;;;5028880;28;20088;-58
2021/12/14 14:51:46;;;;;;;143.90;70.70;;;;;;;;;;5029744;28;20025;-58
2021/12/14 14:54:30;;;;;;;140.77;66.60;;;;;;;;;;5028787;28;20044;-58
2021/12/14 14:56:55;;;;;;;134.45;64.82;;;;;;;;;;5031892;28;20871;-58
2021/12/14 14:59:20;;;;;;;133.15;70.93;;;;;;;;;;5032185;28;20046;-58
2021/12/14 15:01:46;;;;;;;142.13;70.57;;;;;;;;;;5033979;28;20453;-57